Time;durP1;ratioP1;P1;durP2;ratioP2;P2;SDS_P1;SDS_P2;PMS_P1;PMS_P2;Temp;Humidity;BMP_temperature;BMP_pressure;BME280_temperature;BME280_humidity;BME280_pressure;Samples;Min_cycle;Max_cycle;Signal;HPM_P1;HPM_P2
2022/03/07 00:02:14;;;;;;;17.10;8.60;;;1.40;46.90;;;;;;5034579;28;20032;-21
2022/03/07 00:04:40;;;;;;;18.92;9.75;;;1.30;47.60;;;;;;5036152;28;20060;-20
2022/03/07 00:07:06;;;;;;;18.42;9.20;;;1.30;49.00;;;;;;5035788;28;20026;-21
2022/03/07 00:09:32;;;;;;;18.52;9.73;;;1.20;48.90;;;;;;5036028;28;20037;-21
2022/03/07 00:11:58;;;;;;;11.02;6.15;;;1.20;49.10;;;;;;5035981;28;20025;-21
2022/03/07 00:14:24;;;;;;;11.82;6.15;;;1.20;47.70;;;;;;5035606;28;20041;-20
2022/03/07 00:16:50;;;;;;;12.75;6.45;;;1.10;47.60;;;;;;5035909;28;20469;-20
2022/03/07 00:19:16;;;;;;;13.85;7.10;;;1.10;47.80;;;;;;5035428;28;20054;-21
2022/03/07 00:21:42;;;;;;;8.88;4.45;;;1.10;47.50;;;;;;5035744;28;20029;-20
2022/03/07 00:24:09;;;;;;;8.85;4.85;;;1.10;46.90;;;;;;5035558;28;20022;-20
2022/03/07 00:26:35;;;;;;;8.52;4.25;;;1.00;46.70;;;;;;5035308;28;20021;-20
2022/03/07 00:29:01;;;;;;;12.98;5.60;;;0.90;46.80;;;;;;5035360;28;20032;-21
2022/03/07 00:31:27;;;;;;;17.35;6.68;;;0.90;46.50;;;;;;5035650;28;20026;-20
2022/03/07 00:33:53;;;;;;;13.00;6.43;;;0.90;46.80;;;;;;5035461;28;20059;-21
2022/03/07 00:36:20;;;;;;;10.80;6.00;;;0.80;47.50;;;;;;5035007;28;20025;-21
2022/03/07 00:38:46;;;;;;;10.90;5.78;;;0.80;47.80;;;;;;5033997;28;20022;-21
2022/03/07 00:41:13;;;;;;;7.45;3.70;;;0.80;47.90;;;;;;5033897;28;20029;-23
2022/03/07 00:43:39;;;;;;;10.25;4.60;;;0.70;47.00;;;;;;5035464;28;20030;-21
2022/03/07 00:46:06;;;;;;;10.27;5.15;;;0.70;47.00;;;;;;5035374;28;20489;-22
2022/03/07 00:48:32;;;;;;;10.90;5.78;;;0.60;48.00;;;;;;5035663;28;20111;-21
2022/03/07 00:50:58;;;;;;;8.98;4.75;;;0.60;48.10;;;;;;5032979;28;20037;-23
2022/03/07 00:53:26;;;;;;;27.33;13.55;;;0.60;47.40;;;;;;5035127;28;20389;-22
2022/03/07 00:55:53;;;;;;;15.43;8.20;;;0.50;49.30;;;;;;5035063;28;20029;-21
2022/03/07 00:58:21;;;;;;;15.65;7.53;;;0.50;49.60;;;;;;5034684;28;20068;-22
2022/03/07 01:00:47;;;;;;;8.23;4.10;;;0.40;49.40;;;;;;5034554;28;20036;-22
2022/03/07 01:03:14;;;;;;;13.55;6.82;;;0.40;48.10;;;;;;5034728;28;20025;-22
2022/03/07 01:05:41;;;;;;;10.73;5.32;;;0.40;49.90;;;;;;5035095;28;20052;-21
2022/03/07 01:08:08;;;;;;;9.32;5.38;;;0.30;48.60;;;;;;5034628;28;20060;-21
2022/03/07 01:10:35;;;;;;;15.70;6.78;;;0.30;48.20;;;;;;5034684;28;20025;-23
2022/03/07 01:13:02;;;;;;;11.15;5.47;;;0.20;48.40;;;;;;5034960;28;20063;-21
2022/03/07 01:15:27;;;;;;;11.52;5.97;;;0.20;48.20;;;;;;5034548;28;20021;-21
2022/03/07 01:17:54;;;;;;;8.73;3.72;;;0.10;48.80;;;;;;5034444;28;20512;-23
2022/03/07 01:20:21;;;;;;;10.18;4.57;;;0.10;48.40;;;;;;5034170;28;20033;-21
2022/03/07 01:22:47;;;;;;;14.93;7.38;;;0.10;48.70;;;;;;5034913;28;20095;-23
2022/03/07 01:25:13;;;;;;;18.48;7.68;;;0.10;49.30;;;;;;5034343;28;20433;-22
2022/03/07 01:27:40;;;;;;;8.00;4.20;;;0.10;50.60;;;;;;5034621;28;20029;-21
2022/03/07 01:30:07;;;;;;;11.00;4.65;;;0.00;48.70;;;;;;5034358;28;20017;-21
2022/03/07 01:32:33;;;;;;;9.68;4.28;;;0.00;48.50;;;;;;5034332;28;20025;-21
2022/03/07 01:35:00;;;;;;;9.52;4.80;;;0.00;48.00;;;;;;5032876;28;20029;-21
2022/03/07 01:37:26;;;;;;;12.90;6.00;;;0.00;49.00;;;;;;5034131;28;20032;-22
2022/03/07 01:39:52;;;;;;;14.00;6.57;;;0.00;48.80;;;;;;5034030;28;20033;-20
2022/03/07 01:42:18;;;;;;;11.07;5.65;;;0.00;49.90;;;;;;5033809;28;20052;-20
2022/03/07 01:44:44;;;;;;;23.75;11.88;;;0.00;49.00;;;;;;5034178;28;20029;-20
2022/03/07 01:47:10;;;;;;;13.90;8.15;;;-0.10;51.60;;;;;;5034254;28;20104;-22
2022/03/07 01:49:36;;;;;;;14.73;6.72;;;-0.10;50.00;;;;;;5033853;28;20052;-21
2022/03/07 01:52:02;;;;;;;25.52;13.38;;;-0.10;49.90;;;;;;5033849;28;20104;-21
2022/03/07 01:54:28;;;;;;;14.93;7.38;;;-0.10;54.90;;;;;;5033861;28;20167;-20
2022/03/07 01:56:54;;;;;;;29.70;14.85;;;-0.20;54.50;;;;;;5033709;28;20483;-21
2022/03/07 01:59:28;;;;;;;22.98;11.27;;;-0.20;52.80;;;;;;5033699;28;20063;-22
2022/03/07 02:01:55;;;;;;;25.02;12.13;;;-0.20;53.00;;;;;;5033889;28;20068;-20
2022/03/07 02:04:22;;;;;;;13.55;6.95;;;-0.20;55.00;;;;;;5033414;28;20086;-21
2022/03/07 02:06:49;;;;;;;19.00;9.52;;;-0.20;54.10;;;;;;5033584;28;20029;-19
2022/03/07 02:09:17;;;;;;;23.77;11.25;;;-0.20;53.50;;;;;;5033817;28;20078;-21
2022/03/07 02:11:44;;;;;;;23.27;12.68;;;-0.20;55.30;;;;;;5033538;28;20481;-20
2022/03/07 02:14:11;;;;;;;28.85;14.65;;;-0.20;57.10;;;;;;5033678;28;20041;-21
2022/03/07 02:16:37;;;;;;;26.88;12.48;;;-0.10;59.30;;;;;;5033653;28;20026;-22
2022/03/07 02:19:03;;;;;;;25.85;13.85;;;-0.10;58.30;;;;;;5033170;28;20536;-23
2022/03/07 02:21:34;;;;;;;23.42;11.38;;;-0.10;56.60;;;;;;5033603;28;20070;-21
2022/03/07 02:24:00;;;;;;;17.38;9.20;;;-0.10;55.40;;;;;;5033673;28;20477;-20
2022/03/07 02:26:26;;;;;;;13.77;6.35;;;-0.10;56.00;;;;;;5033148;28;20030;-20
2022/03/07 02:28:53;;;;;;;14.68;7.03;;;-0.10;53.90;;;;;;5032064;28;20028;-21
2022/03/07 02:31:21;;;;;;;9.65;4.72;;;-0.10;53.10;;;;;;5033712;28;20030;-21
2022/03/07 02:33:47;;;;;;;19.70;9.70;;;-0.10;52.40;;;;;;5033546;28;20041;-21
2022/03/07 02:36:13;;;;;;;18.75;9.43;;;-0.10;53.50;;;;;;5032967;28;20025;-20
2022/03/07 02:38:42;;;;;;;17.75;8.35;;;-0.10;53.30;;;;;;5033747;28;20041;-21
2022/03/07 02:41:08;;;;;;;11.30;5.20;;;-0.20;51.90;;;;;;5033011;28;20033;-20
2022/03/07 02:43:33;;;;;;;10.38;4.97;;;-0.20;51.60;;;;;;5031887;28;20033;-21
2022/03/07 02:46:01;;;;;;;19.92;9.30;;;-0.20;51.80;;;;;;5033287;28;20091;-21
2022/03/07 02:48:27;;;;;;;14.13;6.75;;;-0.20;53.40;;;;;;5032808;28;20389;-21
2022/03/07 02:50:55;;;;;;;7.45;4.18;;;-0.30;53.00;;;;;;5033619;28;20018;-20
2022/03/07 02:53:21;;;;;;;19.85;10.07;;;-0.30;51.30;;;;;;5033338;28;20083;-20
2022/03/07 02:55:48;;;;;;;15.48;6.78;;;-0.30;53.10;;;;;;5032953;28;20084;-20
2022/03/07 02:58:13;;;;;;;14.23;6.18;;;-0.30;53.60;;;;;;5033079;28;20025;-19
2022/03/07 03:00:39;;;;;;;8.27;4.20;;;-0.40;54.40;;;;;;5033161;28;20385;-20
2022/03/07 03:03:05;;;;;;;9.30;5.40;;;-0.40;52.40;;;;;;5032817;28;20508;-20
2022/03/07 03:05:31;;;;;;;6.32;3.67;;;-0.50;52.20;;;;;;5033192;28;20116;-20
2022/03/07 03:07:58;;;;;;;21.38;9.70;;;-0.50;51.00;;;;;;5032823;28;20029;-20
2022/03/07 03:10:23;;;;;;;15.38;7.05;;;-0.50;53.10;;;;;;5032677;28;20543;-20
2022/03/07 03:12:50;;;;;;;17.48;9.25;;;-0.60;53.60;;;;;;5032767;28;20029;-20
2022/03/07 03:15:17;;;;;;;11.60;5.93;;;-0.60;52.70;;;;;;5035356;28;20112;-20
2022/03/07 03:17:45;;;;;;;7.47;3.60;;;-0.70;52.60;;;;;;5036727;28;20050;-20
2022/03/07 03:20:13;;;;;;;8.82;4.18;;;-0.60;52.10;;;;;;5036771;28;20032;-21
2022/03/07 03:22:41;;;;;;;9.38;3.50;;;-0.70;52.50;;;;;;5036627;28;20029;-19
2022/03/07 03:25:09;;;;;;;7.57;4.20;;;-0.70;51.60;;;;;;5036937;28;20091;-20
2022/03/07 03:27:37;;;;;;;20.15;9.65;;;-0.80;52.00;;;;;;5036569;28;20025;-20
2022/03/07 03:30:06;;;;;;;8.00;3.97;;;-0.80;52.70;;;;;;5036423;28;20105;-20
2022/03/07 03:32:32;;;;;;;11.40;5.97;;;-0.90;51.50;;;;;;5036359;28;20034;-20
2022/03/07 03:34:57;;;;;;;6.28;3.03;;;-0.90;52.10;;;;;;5036403;28;20040;-20
2022/03/07 03:37:24;;;;;;;6.65;3.30;;;-0.90;51.30;;;;;;5036449;28;20021;-19
2022/03/07 03:39:51;;;;;;;10.13;5.68;;;-0.90;51.00;;;;;;5035419;28;20108;-20
2022/03/07 03:42:17;;;;;;;27.15;13.85;;;-1.00;51.70;;;;;;5036060;28;20112;-20
2022/03/07 03:44:43;;;;;;;8.55;4.28;;;-1.00;54.10;;;;;;5036082;28;20064;-19
2022/03/07 03:47:09;;;;;;;6.53;3.22;;;-1.00;52.50;;;;;;5034969;28;20128;-19
2022/03/07 03:49:35;;;;;;;6.40;3.33;;;-1.10;52.00;;;;;;5036458;28;20561;-20
2022/03/07 03:52:02;;;;;;;5.97;3.03;;;-1.10;51.60;;;;;;5036081;28;20393;-19
2022/03/07 03:54:28;;;;;;;8.43;3.30;;;-1.10;51.70;;;;;;5034615;28;20021;-20
2022/03/07 03:56:53;;;;;;;5.85;2.90;;;-1.10;51.40;;;;;;5036343;28;20124;-19
2022/03/07 03:59:19;;;;;;;7.78;3.65;;;-1.20;51.10;;;;;;5036099;28;20108;-19
2022/03/07 04:01:45;;;;;;;5.57;3.25;;;-1.20;51.00;;;;;;5036152;28;20033;-20
2022/03/07 04:04:12;;;;;;;7.70;3.17;;;-1.30;51.10;;;;;;5036002;28;20497;-22
2022/03/07 04:06:39;;;;;;;5.57;2.50;;;-1.30;51.60;;;;;;5036121;28;20057;-22
2022/03/07 04:09:08;;;;;;;5.57;2.63;;;-1.30;51.80;;;;;;5034515;28;20374;-20
2022/03/07 04:11:34;;;;;;;3.45;2.17;;;-1.30;51.10;;;;;;5034718;28;20038;-21
2022/03/07 04:14:00;;;;;;;3.58;2.20;;;-1.30;51.10;;;;;;5035701;28;20024;-20
2022/03/07 04:16:26;;;;;;;4.40;2.50;;;-1.40;50.80;;;;;;5035443;28;20034;-21
2022/03/07 04:18:52;;;;;;;4.93;2.30;;;-1.40;50.90;;;;;;5035493;28;20077;-21
2022/03/07 04:21:19;;;;;;;3.40;2.05;;;-1.50;50.80;;;;;;5035491;28;20029;-20
2022/03/07 04:23:45;;;;;;;6.40;2.67;;;-1.50;50.80;;;;;;5035786;28;20048;-20
2022/03/07 04:26:11;;;;;;;5.55;2.75;;;-1.50;50.80;;;;;;5034586;28;20033;-18
2022/03/07 04:28:37;;;;;;;4.63;2.40;;;-1.50;50.70;;;;;;5035770;28;20112;-19
2022/03/07 04:31:03;;;;;;;9.75;4.63;;;-1.60;50.70;;;;;;5035325;28;20453;-20
2022/03/07 04:33:28;;;;;;;12.15;6.53;;;-1.60;51.70;;;;;;5035331;28;20022;-20
2022/03/07 04:35:54;;;;;;;10.15;4.45;;;-1.60;51.40;;;;;;5035616;28;20109;-19
2022/03/07 04:38:24;;;;;;;8.30;3.65;;;-1.60;52.70;;;;;;5034950;28;20036;-19
2022/03/07 04:40:50;;;;;;;6.50;3.15;;;-1.60;52.80;;;;;;5035396;28;20022;-20
2022/03/07 04:43:16;;;;;;;6.65;3.25;;;-1.60;52.10;;;;;;5033984;28;20108;-20
2022/03/07 04:45:42;;;;;;;8.50;3.50;;;-1.70;52.70;;;;;;5035039;28;20030;-20
2022/03/07 04:48:08;;;;;;;6.47;3.92;;;-1.70;52.40;;;;;;5035366;28;20028;-19
2022/03/07 04:50:34;;;;;;;7.35;3.42;;;-1.70;52.00;;;;;;5034846;28;20391;-19
2022/03/07 04:52:59;;;;;;;9.98;4.90;;;-1.70;52.00;;;;;;5034992;28;20021;-19
2022/03/07 04:55:25;;;;;;;11.57;4.18;;;-1.80;52.60;;;;;;5034937;28;20104;-18
2022/03/07 04:57:51;;;;;;;12.85;6.13;;;-1.80;52.70;;;;;;5035229;28;20025;-19
2022/03/07 05:00:17;;;;;;;10.30;4.35;;;-1.80;53.30;;;;;;5034649;28;20021;-18
2022/03/07 05:02:44;;;;;;;10.45;4.30;;;-1.80;54.30;;;;;;5033856;28;20105;-19
2022/03/07 05:05:10;;;;;;;13.13;5.90;;;-1.80;53.00;;;;;;5035095;28;20026;-19
2022/03/07 05:07:35;;;;;;;9.57;3.55;;;-1.80;54.80;;;;;;5033433;28;20104;-18
2022/03/07 05:10:02;;;;;;;5.45;2.78;;;-1.80;53.60;;;;;;5034781;28;20022;-20
2022/03/07 05:12:28;;;;;;;8.25;4.05;;;-1.80;52.80;;;;;;5034418;28;20377;-18
2022/03/07 05:14:54;;;;;;;7.40;2.88;;;-1.90;52.80;;;;;;5034479;28;20022;-19
2022/03/07 05:17:20;;;;;;;6.53;3.20;;;-1.90;52.40;;;;;;5034493;28;20033;-20
2022/03/07 05:19:47;;;;;;;7.32;3.70;;;-1.90;52.50;;;;;;5034818;28;20053;-18
2022/03/07 05:22:14;;;;;;;3.95;2.28;;;-2.00;53.20;;;;;;5034607;28;20044;-20
2022/03/07 05:24:40;;;;;;;7.28;3.13;;;-2.00;52.30;;;;;;5035091;28;20116;-20
2022/03/07 05:27:06;;;;;;;5.50;2.65;;;-2.00;52.60;;;;;;5034895;28;20469;-19
2022/03/07 05:29:33;;;;;;;6.63;3.63;;;-2.00;52.00;;;;;;5034842;28;20470;-20
2022/03/07 05:31:59;;;;;;;6.40;3.42;;;-2.00;52.80;;;;;;5034271;28;20057;-20
2022/03/07 05:34:25;;;;;;;7.07;3.47;;;-2.00;52.30;;;;;;5033937;28;20057;-19
2022/03/07 05:36:51;;;;;;;4.82;3.05;;;-2.00;52.70;;;;;;5033800;28;20083;-19
2022/03/07 05:39:18;;;;;;;6.85;3.22;;;-2.10;53.00;;;;;;5034077;28;20018;-20
2022/03/07 05:41:44;;;;;;;13.38;7.03;;;-2.10;52.40;;;;;;5033979;28;20084;-20
2022/03/07 05:44:10;;;;;;;5.90;2.85;;;-2.10;53.40;;;;;;5033949;28;20022;-18
2022/03/07 05:46:36;;;;;;;6.07;2.67;;;-2.10;52.60;;;;;;5032468;28;20072;-19
2022/03/07 05:49:02;;;;;;;5.25;3.08;;;-2.20;52.30;;;;;;5034173;28;20033;-19
2022/03/07 05:51:28;;;;;;;5.97;2.85;;;-2.20;52.50;;;;;;5034190;28;20025;-19
2022/03/07 05:53:54;;;;;;;5.22;2.53;;;-2.20;52.40;;;;;;5034148;28;20444;-19
2022/03/07 05:56:21;;;;;;;10.70;5.78;;;-2.20;52.40;;;;;;5034512;28;20033;-19
2022/03/07 05:58:46;;;;;;;6.30;2.90;;;-2.20;53.10;;;;;;5034536;28;20067;-19
2022/03/07 06:01:13;;;;;;;4.60;2.35;;;-2.20;52.80;;;;;;5033636;28;20033;-21
2022/03/07 06:03:39;;;;;;;6.95;3.33;;;-2.20;52.30;;;;;;5033783;28;20052;-21
2022/03/07 06:06:05;;;;;;;4.07;2.20;;;-2.20;52.60;;;;;;5033652;28;20465;-21
2022/03/07 06:08:31;;;;;;;10.48;5.03;;;-2.20;52.50;;;;;;5033330;28;20029;-21
2022/03/07 06:10:57;;;;;;;11.85;5.53;;;-2.20;54.10;;;;;;5034131;28;20026;-20
2022/03/07 06:13:23;;;;;;;12.18;6.03;;;-2.10;53.50;;;;;;5033489;28;20028;-19
2022/03/07 06:15:50;;;;;;;15.40;7.03;;;-2.10;54.10;;;;;;5033642;28;20029;-21
2022/03/07 06:18:16;;;;;;;10.15;4.75;;;-2.00;54.10;;;;;;5032995;28;20060;-20
2022/03/07 06:20:41;;;;;;;4.53;2.67;;;-2.00;54.50;;;;;;5033709;28;20021;-19
2022/03/07 06:23:07;;;;;;;5.50;2.53;;;-1.90;53.50;;;;;;5033690;28;20401;-19
2022/03/07 06:25:34;;;;;;;21.48;9.73;;;-1.80;53.30;;;;;;5033519;28;20029;-19
2022/03/07 06:28:02;;;;;;;5.97;3.65;;;-1.70;55.10;;;;;;5033304;28;20063;-21
2022/03/07 06:30:28;;;;;;;11.27;4.63;;;-1.60;53.50;;;;;;5033251;28;20112;-19
2022/03/07 06:32:54;;;;;;;6.72;3.90;;;-1.50;53.30;;;;;;5033309;28;20438;-21
2022/03/07 06:35:20;;;;;;;5.13;2.50;;;-1.30;53.30;;;;;;5033446;28;20037;-20
2022/03/07 06:37:51;;;;;;;6.45;3.05;;;-1.20;52.20;;;;;;5033495;28;20025;-20
2022/03/07 06:40:21;;;;;;;5.38;2.78;;;-1.10;51.70;;;;;;5033064;28;20116;-21
2022/03/07 06:42:48;;;;;;;6.63;3.15;;;-0.90;51.40;;;;;;5033031;28;20370;-21
2022/03/07 06:45:16;;;;;;;9.18;4.28;;;-0.80;51.40;;;;;;5033175;28;20446;-19
2022/03/07 06:47:44;;;;;;;9.70;4.20;;;-0.60;51.00;;;;;;5033403;28;20061;-21
2022/03/07 06:50:11;;;;;;;8.68;4.00;;;-0.40;52.20;;;;;;5032347;28;20539;-19
2022/03/07 06:52:37;;;;;;;16.88;8.00;;;-0.20;52.30;;;;;;5032994;28;20026;-21
2022/03/07 06:55:04;;;;;;;16.48;6.53;;;0.00;51.70;;;;;;5031777;28;20025;-21
2022/03/07 06:57:30;;;;;;;11.43;4.78;;;0.00;51.10;;;;;;5033296;28;20049;-19
2022/03/07 06:59:56;;;;;;;8.25;3.60;;;0.20;50.90;;;;;;5033132;28;20053;-18
2022/03/07 07:02:22;;;;;;;25.83;12.73;;;0.40;50.40;;;;;;5031300;28;20072;-20
2022/03/07 07:04:48;;;;;;;10.55;4.63;;;0.60;50.60;;;;;;5032924;28;20025;-20
2022/03/07 07:07:16;;;;;;;10.88;4.97;;;0.90;50.70;;;;;;5032922;28;20524;-19
2022/03/07 07:09:42;;;;;;;20.90;9.77;;;1.10;50.80;;;;;;5033482;28;20061;-19
2022/03/07 07:12:09;;;;;;;21.02;9.40;;;1.30;50.30;;;;;;5033159;28;20041;-19
2022/03/07 07:14:37;;;;;;;9.85;4.32;;;1.60;49.70;;;;;;5032596;28;20489;-21
2022/03/07 07:17:03;;;;;;;10.40;5.20;;;1.80;49.40;;;;;;5032811;28;20029;-21
2022/03/07 07:19:29;;;;;;;14.18;6.80;;;1.90;49.30;;;;;;5032618;28;20172;-20
2022/03/07 07:21:55;;;;;;;9.93;4.88;;;2.10;49.40;;;;;;5032652;28;20439;-21
2022/03/07 07:24:21;;;;;;;9.45;4.63;;;2.30;49.20;;;;;;5032527;28;20029;-22
2022/03/07 07:26:47;;;;;;;11.38;5.47;;;2.50;49.30;;;;;;5032755;28;20064;-20
2022/03/07 07:29:13;;;;;;;17.42;7.93;;;2.60;49.30;;;;;;5032668;28;20100;-21
2022/03/07 07:31:39;;;;;;;12.65;6.38;;;2.80;49.20;;;;;;5032598;28;20517;-19
2022/03/07 07:34:04;;;;;;;11.68;6.30;;;2.90;49.40;;;;;;5032933;28;20036;-22
2022/03/07 07:36:30;;;;;;;11.70;6.10;;;3.10;49.60;;;;;;5031191;28;20569;-21
2022/03/07 07:38:56;;;;;;;32.50;14.98;;;3.20;49.30;;;;;;5033053;28;20049;-20
2022/03/07 07:41:22;;;;;;;17.40;8.68;;;3.40;50.80;;;;;;5032527;28;20037;-22
2022/03/07 07:43:51;;;;;;;13.07;6.70;;;3.50;50.70;;;;;;5032779;28;20489;-21
2022/03/07 07:46:19;;;;;;;32.22;14.95;;;3.60;50.60;;;;;;5032270;28;20056;-22
2022/03/07 07:48:45;;;;;;;21.45;10.50;;;3.80;50.90;;;;;;5032798;28;20414;-22
2022/03/07 07:51:11;;;;;;;15.75;8.40;;;4.00;50.50;;;;;;5032429;28;20493;-21
2022/03/07 07:53:37;;;;;;;20.52;10.27;;;4.10;51.10;;;;;;5032688;28;20029;-21
2022/03/07 07:56:03;;;;;;;21.75;10.55;;;4.40;51.00;;;;;;5032774;28;20032;-21
2022/03/07 07:58:29;;;;;;;23.55;11.32;;;4.50;51.70;;;;;;5032513;28;20038;-22
2022/03/07 08:00:55;;;;;;;17.23;8.40;;;4.60;52.50;;;;;;5032826;28;20018;-21
2022/03/07 08:03:21;;;;;;;17.65;9.18;;;4.80;51.30;;;;;;5036183;28;20048;-20
2022/03/07 08:05:48;;;;;;;21.38;9.55;;;4.90;51.80;;;;;;5036209;28;20025;-23
2022/03/07 08:08:15;;;;;;;19.42;10.50;;;5.10;50.70;;;;;;5035625;28;20523;-22
2022/03/07 08:10:41;;;;;;;24.25;11.18;;;5.30;50.50;;;;;;5034687;28;20037;-23
2022/03/07 08:13:07;;;;;;;25.73;12.32;;;5.40;49.20;;;;;;5036086;28;20091;-22
2022/03/07 08:15:33;;;;;;;21.95;11.50;;;5.60;48.60;;;;;;5035621;28;20446;-21
2022/03/07 08:17:59;;;;;;;24.98;11.75;;;5.80;48.00;;;;;;5035437;28;20076;-23
2022/03/07 08:20:26;;;;;;;22.27;10.45;;;5.90;48.10;;;;;;5035430;28;20029;-23
2022/03/07 08:22:52;;;;;;;21.38;11.75;;;6.10;47.40;;;;;;5035501;28;20497;-21
2022/03/07 08:25:21;;;;;;;25.23;13.32;;;6.30;46.70;;;;;;5035826;28;20033;-21
2022/03/07 08:27:47;;;;;;;22.40;11.45;;;6.50;46.30;;;;;;5036296;28;20021;-21
2022/03/07 08:30:16;;;;;;;21.55;11.35;;;6.70;46.90;;;;;;5035458;28;20104;-22
2022/03/07 08:32:42;;;;;;;23.15;11.57;;;6.90;46.50;;;;;;5035345;28;20394;-21
2022/03/07 08:35:10;;;;;;;19.40;10.55;;;7.10;45.80;;;;;;5035369;28;20025;-22
2022/03/07 08:37:37;;;;;;;23.20;12.68;;;7.30;44.70;;;;;;5035606;28;20107;-23
2022/03/07 08:40:06;;;;;;;24.33;11.85;;;7.40;44.80;;;;;;5035567;28;20034;-21
2022/03/07 08:42:32;;;;;;;24.80;11.70;;;7.60;44.70;;;;;;5033667;28;20501;-21
2022/03/07 08:44:57;;;;;;;23.15;11.40;;;7.90;43.70;;;;;;5035423;28;20030;-21
2022/03/07 08:47:23;;;;;;;22.33;10.60;;;8.00;43.80;;;;;;5035106;28;20053;-23
2022/03/07 08:49:49;;;;;;;21.35;11.50;;;8.20;43.50;;;;;;5035121;28;20029;-20
2022/03/07 08:52:15;;;;;;;22.00;11.25;;;8.40;43.20;;;;;;5035534;28;20025;-22
2022/03/07 08:54:48;;;;;;;23.98;12.52;;;8.60;43.00;;;;;;5034867;28;20363;-23
2022/03/07 08:57:14;;;;;;;22.83;12.98;;;8.70;42.00;;;;;;5035168;28;20040;-21
2022/03/07 08:59:41;;;;;;;22.08;12.00;;;8.90;42.40;;;;;;5035181;28;20404;-21
2022/03/07 09:02:09;;;;;;;20.13;11.32;;;9.10;41.60;;;;;;5033501;28;20112;-21
2022/03/07 09:04:36;;;;;;;20.98;12.07;;;9.40;41.50;;;;;;5034938;28;20047;-20
2022/03/07 09:07:03;;;;;;;19.20;10.05;;;9.50;41.10;;;;;;5034806;28;20024;-21
2022/03/07 09:09:29;;;;;;;23.17;12.55;;;9.70;40.80;;;;;;5034778;28;20022;-23
2022/03/07 09:11:55;;;;;;;19.10;10.93;;;9.90;39.90;;;;;;5033996;28;20025;-22
2022/03/07 09:14:21;;;;;;;21.17;10.27;;;10.10;40.00;;;;;;5034734;28;20026;-21
2022/03/07 09:16:47;;;;;;;11.70;6.50;;;10.30;39.90;;;;;;5034522;28;20014;-23
2022/03/07 09:19:13;;;;;;;19.75;10.50;;;10.40;40.30;;;;;;5034273;28;20057;-21
2022/03/07 09:21:39;;;;;;;17.85;10.45;;;10.70;39.50;;;;;;5034329;28;20025;-21
2022/03/07 09:24:06;;;;;;;18.33;9.65;;;10.90;39.10;;;;;;5034610;28;20025;-21
2022/03/07 09:26:32;;;;;;;16.65;10.00;;;11.20;39.10;;;;;;5034457;28;20025;-21
2022/03/07 09:28:59;;;;;;;18.35;10.85;;;11.40;38.70;;;;;;5034596;28;20061;-21
2022/03/07 09:31:25;;;;;;;21.65;11.98;;;11.70;38.10;;;;;;5034181;28;20461;-23
2022/03/07 09:33:51;;;;;;;18.48;9.85;;;11.90;38.00;;;;;;5034226;28;20057;-23
2022/03/07 09:36:18;;;;;;;14.98;7.95;;;12.10;37.80;;;;;;5034105;28;20061;-22
2022/03/07 09:38:44;;;;;;;16.30;8.75;;;12.40;37.70;;;;;;5034118;28;20547;-21
2022/03/07 09:41:11;;;;;;;13.02;7.38;;;12.60;37.00;;;;;;5034505;28;20021;-21
2022/03/07 09:43:37;;;;;;;16.48;10.18;;;12.80;37.30;;;;;;5034278;28;20026;-21
2022/03/07 09:46:05;;;;;;;15.15;8.98;;;13.10;36.60;;;;;;5032774;28;20113;-22
2022/03/07 09:48:31;;;;;;;16.23;9.88;;;13.40;36.30;;;;;;5033791;28;20068;-22
2022/03/07 09:50:58;;;;;;;13.23;7.30;;;13.60;36.20;;;;;;5034216;28;20112;-22
2022/03/07 09:53:24;;;;;;;14.07;7.63;;;13.80;36.00;;;;;;5033913;28;20044;-21
2022/03/07 09:55:50;;;;;;;10.50;6.13;;;14.00;35.80;;;;;;5034015;28;20029;-21
2022/03/07 09:58:16;;;;;;;15.68;8.35;;;14.30;35.90;;;;;;5033569;28;20033;-21
2022/03/07 10:00:43;;;;;;;16.08;9.57;;;14.50;35.60;;;;;;5033842;28;20420;-23
2022/03/07 10:03:12;;;;;;;19.70;10.90;;;14.70;35.40;;;;;;5033965;28;20034;-21
2022/03/07 10:05:40;;;;;;;20.83;11.98;;;15.00;34.80;;;;;;5033990;28;20108;-22
2022/03/07 10:08:08;;;;;;;12.27;6.97;;;15.20;33.80;;;;;;5034240;28;20025;-21
2022/03/07 10:10:43;;;;;;;18.02;11.05;;;15.30;34.60;;;;;;5033433;28;20481;-21
2022/03/07 10:13:11;;;;;;;17.88;9.82;;;15.50;34.60;;;;;;5033870;28;20052;-21
2022/03/07 10:15:39;;;;;;;20.35;11.30;;;15.70;34.30;;;;;;5033389;28;20025;-21
2022/03/07 10:18:10;;;;;;;16.15;9.63;;;15.90;33.50;;;;;;5031961;28;20068;-22
2022/03/07 10:20:47;;;;;;;19.83;11.55;;;15.90;32.60;;;;;;5033652;28;20034;-21
2022/03/07 10:23:12;;;;;;;22.05;12.68;;;16.00;32.80;;;;;;5033097;28;20045;-21
2022/03/07 10:25:42;;;;;;;18.50;11.10;;;15.90;32.30;;;;;;5032738;28;20022;-21
2022/03/07 10:28:09;;;;;;;17.55;10.40;;;16.00;32.40;;;;;;5033327;28;20036;-21
2022/03/07 10:30:36;;;;;;;16.70;10.43;;;16.20;32.80;;;;;;5033367;28;20433;-21
2022/03/07 10:33:11;;;;;;;19.75;12.63;;;16.30;33.00;;;;;;5033167;28;20060;-21
2022/03/07 10:35:42;;;;;;;16.17;9.25;;;16.40;31.40;;;;;;5033526;28;20026;-20
2022/03/07 10:38:16;;;;;;;15.07;9.85;;;16.60;32.70;;;;;;5033564;28;20100;-21
2022/03/07 10:40:48;;;;;;;13.57;8.25;;;16.70;32.70;;;;;;5033204;28;20029;-20
2022/03/07 10:43:15;;;;;;;17.42;10.65;;;16.90;32.90;;;;;;5033379;28;20041;-21
2022/03/07 10:45:58;;;;;;;16.13;10.25;;;17.10;32.30;;;;;;5033080;28;20048;-21
2022/03/07 10:48:27;;;;;;;17.15;11.18;;;17.40;32.10;;;;;;5032943;28;20461;-21
2022/03/07 10:50:57;;;;;;;19.58;11.32;;;17.60;31.40;;;;;;5033568;28;20029;-21
2022/03/07 10:53:23;;;;;;;21.50;14.05;;;17.70;31.10;;;;;;5033232;28;20025;-21
2022/03/07 10:55:56;;;;;;;16.83;10.48;;;17.90;30.90;;;;;;5033298;28;20026;-21
2022/03/07 10:58:23;;;;;;;17.10;10.90;;;17.90;31.10;;;;;;5032972;28;20022;-21
2022/03/07 11:00:54;;;;;;;17.92;11.95;;;18.10;31.10;;;;;;5032938;28;20386;-22
2022/03/07 11:03:33;;;;;;;15.60;10.00;;;18.10;30.70;;;;;;5032917;28;20474;-21
2022/03/07 11:06:01;;;;;;;17.52;10.95;;;18.20;30.70;;;;;;5033271;28;20029;-21
2022/03/07 11:08:28;;;;;;;19.42;11.73;;;18.40;31.20;;;;;;5032602;28;20502;-22
2022/03/07 11:10:57;;;;;;;16.48;10.63;;;18.50;30.30;;;;;;5033093;28;20067;-21
2022/03/07 11:13:26;;;;;;;18.50;11.32;;;18.70;30.50;;;;;;5033077;28;20026;-22
2022/03/07 11:15:58;;;;;;;19.27;12.95;;;18.90;31.00;;;;;;5032726;28;20473;-22
2022/03/07 11:18:25;;;;;;;13.90;9.40;;;18.90;29.50;;;;;;5032613;28;20080;-21
2022/03/07 11:20:53;;;;;;;16.48;10.23;;;19.00;30.20;;;;;;5033080;28;20115;-22
2022/03/07 11:23:21;;;;;;;13.73;8.77;;;19.20;30.20;;;;;;5032679;28;20502;-22
2022/03/07 11:25:52;;;;;;;17.80;11.38;;;19.30;30.30;;;;;;5033055;28;20033;-21
2022/03/07 11:28:21;;;;;;;19.55;11.88;;;19.50;30.00;;;;;;5032883;28;20144;-21
2022/03/07 11:30:47;;;;;;;15.35;10.43;;;19.70;29.90;;;;;;5032646;28;20018;-21
2022/03/07 11:33:19;;;;;;;15.82;10.48;;;19.90;30.10;;;;;;5031513;28;20033;-22
2022/03/07 11:35:48;;;;;;;15.93;10.77;;;20.10;30.00;;;;;;5034707;28;20021;-21
2022/03/07 11:38:15;;;;;;;15.27;10.15;;;20.30;29.60;;;;;;5036525;28;20045;-21
2022/03/07 11:41:06;;;;;;;15.90;9.68;;;20.50;29.50;;;;;;5036356;28;20033;-21
2022/03/07 11:43:48;;;;;;;13.70;8.60;;;20.80;27.00;;;;;;5036382;28;20038;-21
2022/03/07 11:46:33;;;;;;;18.92;11.85;;;21.00;29.20;;;;;;5036860;28;20123;-22
2022/03/07 11:49:01;;;;;;;12.73;8.43;;;21.20;28.30;;;;;;5036842;28;20029;-21
2022/03/07 11:51:30;;;;;;;17.33;11.75;;;21.50;29.20;;;;;;5036498;28;20034;-21
2022/03/07 11:53:57;;;;;;;17.83;12.38;;;21.60;28.30;;;;;;5036116;28;20033;-21
2022/03/07 11:56:26;;;;;;;15.90;10.98;;;21.80;28.40;;;;;;5036169;28;20029;-21
2022/03/07 11:58:55;;;;;;;17.45;11.68;;;21.90;28.00;;;;;;5036088;28;20116;-22
2022/03/07 12:01:24;;;;;;;14.88;9.82;;;21.90;27.80;;;;;;5036209;28;20125;-21
2022/03/07 12:03:52;;;;;;;15.43;10.77;;;22.00;27.90;;;;;;5036301;28;20064;-22
2022/03/07 12:06:20;;;;;;;17.50;11.45;;;22.20;27.90;;;;;;5036042;28;20041;-21
2022/03/07 12:08:52;;;;;;;15.02;9.95;;;22.30;27.30;;;;;;5035852;28;20109;-22
2022/03/07 12:11:32;;;;;;;20.55;13.93;;;22.40;26.80;;;;;;5036133;28;20481;-21
2022/03/07 12:14:09;;;;;;;18.08;12.52;;;22.40;24.50;;;;;;5035849;28;20022;-21
2022/03/07 12:16:40;;;;;;;17.27;10.98;;;22.10;26.20;;;;;;5035724;28;20285;-21
2022/03/07 12:19:13;;;;;;;13.20;8.95;;;22.10;25.80;;;;;;5035451;28;20505;-22
2022/03/07 12:21:43;;;;;;;17.42;12.23;;;22.20;27.10;;;;;;5035843;28;20110;-22
2022/03/07 12:24:14;;;;;;;20.52;13.45;;;22.40;27.10;;;;;;5035883;28;20155;-21
2022/03/07 12:26:52;;;;;;;19.65;14.00;;;22.40;26.70;;;;;;5035919;28;20025;-21
2022/03/07 12:29:25;;;;;;;19.60;13.30;;;22.40;26.30;;;;;;5035504;28;20026;-21
2022/03/07 12:31:54;;;;;;;18.45;13.05;;;22.50;26.70;;;;;;5035669;28;20025;-21
2022/03/07 12:34:32;;;;;;;18.73;13.40;;;22.60;26.60;;;;;;5035273;28;20029;-21
2022/03/07 12:37:08;;;;;;;19.38;12.00;;;22.80;24.70;;;;;;5035651;28;20431;-21
2022/03/07 12:39:53;;;;;;;17.63;12.02;;;22.90;25.40;;;;;;5035425;28;20033;-21
2022/03/07 12:42:23;;;;;;;19.15;13.90;;;22.80;23.30;;;;;;5035244;28;20438;-22